Time,TemperatureF,DewpointF,PressureIn,WindDirection,WindDirectionDegrees,WindSpeedMPH,WindSpeedGustMPH,Humidity,HourlyPrecipIn,Conditions,Clouds,dailyrainin,SoftwareType,DateUTC
2013-10-07 00:01:00,75.6,74.0,29.98,SE,131,4.0,7.0,93,0.00,,,0.00,weatherlink.com 1.10,2013-10-07 04:01:00,
2013-10-07 00:16:00,75.7,73.0,29.98,SE,140,5.0,7.0,92,0.00,,,0.00,weatherlink.com 1.10,2013-10-07 04:16:00,
2013-10-07 00:31:00,75.7,73.0,29.98,SE,138,5.0,8.0,92,0.00,,,0.00,weatherlink.com 1.10,2013-10-07 04:31:00,
2013-10-07 00:46:00,75.7,73.0,29.97,SE,131,5.0,8.0,92,0.00,,,0.00,weatherlink.com 1.10,2013-10-07 04:46:00,
2013-10-07 01:01:00,75.6,74.0,29.97,SE,129,5.0,6.0,93,0.00,,,0.00,weatherlink.com 1.10,2013-10-07 05:01:00,
2013-10-07 01:16:00,75.5,73.0,29.97,SE,131,3.0,5.0,93,0.00,,,0.00,weatherlink.com 1.10,2013-10-07 05:16:00,
2013-10-07 01:31:00,75.7,74.0,29.97,SE,131,4.0,5.0,93,0.00,,,0.00,weatherlink.com 1.10,2013-10-07 05:31:00,
2013-10-07 01:46:00,75.8,74.0,29.97,SE,136,4.0,7.0,93,0.00,,,0.00,weatherlink.com 1.10,2013-10-07 05:46:00,
2013-10-07 02:01:00,75.9,74.0,29.97,SSE,166,6.0,8.0,94,0.00,,,0.00,weatherlink.com 1.10,2013-10-07 06:01:00,
2013-10-07 02:17:00,76.2,74.0,29.96,SE,139,7.0,13.0,94,0.00,,,0.00,weatherlink.com 1.10,2013-10-07 06:17:00,
2013-10-07 02:32:00,76.0,74.0,29.96,South,179,6.0,11.0,94,0.00,,,0.00,weatherlink.com 1.10,2013-10-07 06:32:00,
2013-10-07 02:47:00,75.9,74.0,29.95,SSE,150,6.0,7.0,94,0.00,,,0.00,weatherlink.com 1.10,2013-10-07 06:47:00,
2013-10-07 03:02:00,75.8,74.0,29.95,SE,145,4.0,11.0,94,0.00,,,0.00,weatherlink.com 1.10,2013-10-07 07:02:00,
2013-10-07 03:17:00,75.9,74.0,29.95,SE,142,5.0,10.0,94,0.00,,,0.00,weatherlink.com 1.10,2013-10-07 07:17:00,
2013-10-07 03:32:00,75.7,74.0,29.94,SSE,150,3.0,5.0,94,0.00,,,0.00,weatherlink.com 1.10,2013-10-07 07:32:00,
2013-10-07 03:47:00,75.3,74.0,29.94,SSE,152,5.0,6.0,94,0.00,,,0.00,weatherlink.com 1.10,2013-10-07 07:47:00,
2013-10-07 04:02:00,75.4,74.0,29.93,SSE,160,5.0,7.0,94,0.00,,,0.00,weatherlink.com 1.10,2013-10-07 08:02:00,
2013-10-07 04:17:00,75.4,74.0,29.93,SSE,154,4.0,7.0,94,0.00,,,0.00,weatherlink.com 1.10,2013-10-07 08:17:00,
2013-10-07 04:32:00,75.3,74.0,29.94,South,188,3.0,5.0,94,0.00,,,0.00,weatherlink.com 1.10,2013-10-07 08:32:00,
2013-10-07 04:47:00,75.2,73.0,29.94,South,184,2.0,3.0,94,0.00,,,0.00,weatherlink.com 1.10,2013-10-07 08:47:00,
2013-10-07 05:02:00,75.1,73.0,29.93,South,173,2.0,3.0,94,0.00,,,0.00,weatherlink.com 1.10,2013-10-07 09:02:00,
2013-10-07 05:17:00,75.0,73.0,29.94,South,172,3.0,3.0,94,0.00,,,0.00,weatherlink.com 1.10,2013-10-07 09:17:00,
2013-10-07 05:32:00,74.9,73.0,29.94,SSE,162,2.0,3.0,94,0.00,,,0.00,weatherlink.com 1.10,2013-10-07 09:32:00,
2013-10-07 05:47:00,75.1,73.0,29.94,SSE,167,5.0,5.0,94,0.00,,,0.00,weatherlink.com 1.10,2013-10-07 09:47:00,
2013-10-07 06:02:00,74.9,73.0,29.93,SSE,150,5.0,6.0,94,0.00,,,0.00,weatherlink.com 1.10,2013-10-07 10:02:00,
2013-10-07 06:17:00,75.0,73.0,29.94,SSE,152,3.0,5.0,94,0.00,,,0.00,weatherlink.com 1.10,2013-10-07 10:17:00,
2013-10-07 06:32:00,75.1,73.0,29.93,SSE,152,5.0,7.0,94,0.00,,,0.00,weatherlink.com 1.10,2013-10-07 10:32:00,
2013-10-07 06:48:00,75.1,73.0,29.93,SSE,150,8.0,8.0,94,0.00,,,0.00,weatherlink.com 1.10,2013-10-07 10:48:00,
2013-10-07 07:02:00,75.1,73.0,29.93,SSE,155,5.0,8.0,94,0.00,,,0.00,weatherlink.com 1.10,2013-10-07 11:02:00,
2013-10-07 07:17:00,75.1,73.0,29.93,SSE,165,6.0,8.0,94,0.00,,,0.00,weatherlink.com 1.10,2013-10-07 11:17:00,
2013-10-07 07:32:00,75.5,73.0,29.93,South,173,4.0,8.0,93,0.00,,,0.00,weatherlink.com 1.10,2013-10-07 11:32:00,
2013-10-07 07:47:00,76.0,74.0,29.93,SSE,162,4.0,6.0,92,0.00,,,0.00,weatherlink.com 1.10,2013-10-07 11:47:00,
2013-10-07 08:02:00,76.5,74.0,29.93,SSE,153,5.0,7.0,91,0.00,,,0.00,weatherlink.com 1.10,2013-10-07 12:02:00,
2013-10-07 08:17:00,76.5,74.0,29.94,SSE,159,5.0,7.0,90,0.00,,,0.00,weatherlink.com 1.10,2013-10-07 12:17:00,
2013-10-07 08:32:00,77.6,74.0,29.94,South,177,7.0,9.0,89,0.00,,,0.00,weatherlink.com 1.10,2013-10-07 12:32:00,
2013-10-07 08:47:00,77.9,74.0,29.94,South,183,5.0,9.0,88,0.00,,,0.00,weatherlink.com 1.10,2013-10-07 12:47:00,
2013-10-07 09:02:00,78.6,75.0,29.94,South,176,4.0,7.0,88,0.00,,,0.00,weatherlink.com 1.10,2013-10-07 13:02:00,
2013-10-07 09:17:00,79.2,75.0,29.94,SSE,156,7.0,9.0,86,0.00,,,0.00,weatherlink.com 1.10,2013-10-07 13:17:00,
2013-10-07 09:32:00,78.4,74.0,29.94,SSE,158,11.0,13.0,86,0.00,,,0.00,weatherlink.com 1.10,2013-10-07 13:32:00,
2013-10-07 09:47:00,78.3,74.0,29.94,SSE,153,9.0,13.0,87,0.00,,,0.00,weatherlink.com 1.10,2013-10-07 13:47:00,
2013-10-07 10:02:00,78.9,74.0,29.94,SSE,157,11.0,16.0,86,0.00,,,0.00,weatherlink.com 1.10,2013-10-07 14:02:00,
2013-10-07 10:18:00,79.4,74.0,29.94,SSE,155,11.0,18.0,84,0.00,,,0.00,weatherlink.com 1.10,2013-10-07 14:18:00,
2013-10-07 10:32:00,79.7,74.0,29.94,South,184,11.0,20.0,83,0.00,,,0.00,weatherlink.com 1.10,2013-10-07 14:32:00,
2013-10-07 10:47:00,79.5,74.0,29.94,South,177,7.0,14.0,84,0.00,,,0.00,weatherlink.com 1.10,2013-10-07 14:47:00,
2013-10-07 11:02:00,79.4,74.0,29.94,South,176,8.0,17.0,83,0.00,,,0.00,weatherlink.com 1.10,2013-10-07 15:02:00,
2013-10-07 11:17:00,79.0,74.0,29.94,South,174,10.0,15.0,84,0.00,,,0.00,weatherlink.com 1.10,2013-10-07 15:17:00,
2013-10-07 11:32:00,79.5,74.0,29.93,SSE,150,11.0,16.0,83,0.00,,,0.00,weatherlink.com 1.10,2013-10-07 15:32:00,
2013-10-07 11:47:00,79.8,74.0,29.93,SSE,162,13.0,18.0,81,0.00,,,0.00,weatherlink.com 1.10,2013-10-07 15:47:00,
2013-10-07 12:02:00,79.8,73.0,29.93,South,172,10.0,19.0,80,0.00,,,0.00,weatherlink.com 1.10,2013-10-07 16:02:00,
2013-10-07 12:18:00,79.8,73.0,29.92,South,177,11.0,21.0,80,0.00,,,0.00,weatherlink.com 1.10,2013-10-07 16:18:00,
2013-10-07 12:32:00,79.8,73.0,29.91,South,181,11.0,16.0,80,0.00,,,0.00,weatherlink.com 1.10,2013-10-07 16:32:00,
2013-10-07 12:48:00,80.1,73.0,29.91,South,187,14.0,18.0,78,0.00,,,0.00,weatherlink.com 1.10,2013-10-07 16:48:00,
2013-10-07 13:03:00,80.1,72.0,29.91,SSW,194,12.0,21.0,76,0.00,,,0.00,weatherlink.com 1.10,2013-10-07 17:03:00,
2013-10-07 13:18:00,79.9,72.0,29.90,South,190,12.0,19.0,76,0.00,,,0.00,weatherlink.com 1.10,2013-10-07 17:18:00,
2013-10-07 13:33:00,79.9,72.0,29.90,South,184,11.0,19.0,77,0.00,,,0.00,weatherlink.com 1.10,2013-10-07 17:33:00,
2013-10-07 13:48:00,79.8,73.0,29.89,South,190,9.0,16.0,80,0.00,,,0.00,weatherlink.com 1.10,2013-10-07 17:48:00,
2013-10-07 14:03:00,79.8,73.0,29.89,SSW,197,14.0,19.0,79,0.00,,,0.00,weatherlink.com 1.10,2013-10-07 18:03:00,
2013-10-07 14:18:00,79.9,73.0,29.89,SSW,203,10.0,17.0,79,0.00,,,0.00,weatherlink.com 1.10,2013-10-07 18:18:00,
2013-10-07 14:33:00,79.6,73.0,29.88,SSW,203,12.0,15.0,80,0.00,,,0.00,weatherlink.com 1.10,2013-10-07 18:33:00,
2013-10-07 14:48:00,79.5,74.0,29.88,SW,214,12.0,15.0,82,0.00,,,0.00,weatherlink.com 1.10,2013-10-07 18:48:00,
2013-10-07 15:03:00,79.5,74.0,29.88,SW,214,11.0,14.0,82,0.00,,,0.00,weatherlink.com 1.10,2013-10-07 19:03:00,
2013-10-07 15:18:00,79.5,74.0,29.88,South,187,11.0,16.0,83,0.00,,,0.00,weatherlink.com 1.10,2013-10-07 19:18:00,
2013-10-07 15:33:00,79.2,74.0,29.88,SSW,193,10.0,13.0,83,0.00,,,0.00,weatherlink.com 1.10,2013-10-07 19:33:00,
2013-10-07 15:48:00,79.1,74.0,29.88,SSW,202,9.0,13.0,84,0.00,,,0.00,weatherlink.com 1.10,2013-10-07 19:48:00,
2013-10-07 16:03:00,78.9,74.0,29.89,South,179,9.0,12.0,85,0.00,,,0.00,weatherlink.com 1.10,2013-10-07 20:03:00,
2013-10-07 16:18:00,78.7,74.0,29.89,SSW,211,7.0,10.0,86,0.00,,,0.00,weatherlink.com 1.10,2013-10-07 20:18:00,
2013-10-07 16:33:00,78.8,74.0,29.89,SSW,210,7.0,10.0,86,0.00,,,0.00,weatherlink.com 1.10,2013-10-07 20:33:00,
2013-10-07 16:48:00,78.9,74.0,29.89,SSW,205,7.0,10.0,86,0.00,,,0.00,weatherlink.com 1.10,2013-10-07 20:48:00,
2013-10-07 17:03:00,78.6,74.0,29.88,SSW,207,4.0,8.0,85,0.00,,,0.00,weatherlink.com 1.10,2013-10-07 21:03:00,
2013-10-07 17:18:00,78.6,74.0,29.88,SSW,210,4.0,7.0,86,0.00,,,0.00,weatherlink.com 1.10,2013-10-07 21:18:00,
2013-10-07 17:33:00,78.3,74.0,29.89,SSW,204,4.0,5.0,87,0.00,,,0.00,weatherlink.com 1.10,2013-10-07 21:33:00,
2013-10-07 17:48:00,78.1,74.0,29.89,SSW,198,3.0,5.0,87,0.00,,,0.00,weatherlink.com 1.10,2013-10-07 21:48:00,
2013-10-07 18:03:00,78.0,74.0,29.88,SSW,197,4.0,5.0,88,0.00,,,0.00,weatherlink.com 1.10,2013-10-07 22:03:00,
2013-10-07 18:18:00,77.8,74.0,29.89,SSE,157,3.0,4.0,88,0.00,,,0.00,weatherlink.com 1.10,2013-10-07 22:18:00,
2013-10-07 18:33:00,77.7,74.0,29.88,South,177,2.0,3.0,89,0.00,,,0.00,weatherlink.com 1.10,2013-10-07 22:33:00,
2013-10-07 18:48:00,77.7,74.0,29.88,SE,128,4.0,4.0,89,0.00,,,0.00,weatherlink.com 1.10,2013-10-07 22:48:00,
2013-10-07 19:03:00,77.6,75.0,29.88,ESE,122,3.0,5.0,90,0.00,,,0.00,weatherlink.com 1.10,2013-10-07 23:03:00,
2013-10-07 19:33:00,77.3,75.0,29.88,ESE,115,5.0,6.0,91,0.00,,,0.00,weatherlink.com 1.10,2013-10-07 23:33:00,
2013-10-07 19:48:00,77.3,75.0,29.87,SE,130,5.0,6.0,91,0.00,,,0.00,weatherlink.com 1.10,2013-10-07 23:48:00,
2013-10-07 20:03:00,77.1,74.0,29.88,SSE,153,4.0,5.0,91,0.00,,,0.00,weatherlink.com 1.10,2013-10-08 00:03:00,
2013-10-07 20:18:00,76.9,74.0,29.89,SSE,150,4.0,7.0,91,0.00,,,0.00,weatherlink.com 1.10,2013-10-08 00:18:00,
2013-10-07 20:33:00,76.8,74.0,29.89,SE,139,3.0,5.0,91,0.00,,,0.00,weatherlink.com 1.10,2013-10-08 00:33:00,
2013-10-07 20:48:00,76.8,74.0,29.89,SE,124,2.0,4.0,91,0.00,,,0.00,weatherlink.com 1.10,2013-10-08 00:48:00,
2013-10-07 21:03:00,76.9,74.0,29.90,ESE,103,1.0,3.0,91,0.00,,,0.00,weatherlink.com 1.10,2013-10-08 01:03:00,
2013-10-07 21:18:00,77.0,74.0,29.90,ESE,105,2.0,3.0,91,0.00,,,0.00,weatherlink.com 1.10,2013-10-08 01:18:00,
2013-10-07 21:33:00,76.9,74.0,29.91,East,85,2.0,3.0,91,0.00,,,0.00,weatherlink.com 1.10,2013-10-08 01:33:00,
2013-10-07 21:48:00,76.6,74.0,29.91,NNE,25,1.0,3.0,91,0.00,,,0.00,weatherlink.com 1.10,2013-10-08 01:48:00,
2013-10-07 22:03:00,75.6,73.0,29.92,NNW,330,0.0,1.0,92,0.00,,,0.00,weatherlink.com 1.10,2013-10-08 02:03:00,
2013-10-07 22:18:00,75.5,73.0,29.93,NNW,329,0.0,0.0,93,0.00,,,0.00,weatherlink.com 1.10,2013-10-08 02:18:00,
2013-10-07 22:33:00,75.3,73.0,29.93,NNW,329,0.0,1.0,93,0.00,,,0.00,weatherlink.com 1.10,2013-10-08 02:33:00,
2013-10-07 22:48:00,75.1,73.0,29.93,NNW,329,0.0,1.0,93,0.00,,,0.00,weatherlink.com 1.10,2013-10-08 02:48:00,
2013-10-07 23:03:00,74.9,73.0,29.92,NNW,328,0.0,0.0,93,0.00,,,0.00,weatherlink.com 1.10,2013-10-08 03:03:00,
2013-10-07 23:18:00,75.6,74.0,29.93,SSE,148,3.0,3.0,94,0.00,,,0.00,weatherlink.com 1.10,2013-10-08 03:18:00,
2013-10-07 23:33:00,74.7,70.0,29.93,SE,131,13.0,20.0,84,0.00,,,0.00,weatherlink.com 1.10,2013-10-08 03:33:00,
2013-10-07 23:48:00,73.0,69.0,29.92,SSE,162,12.0,17.0,87,0.02,,,0.02,weatherlink.com 1.10,2013-10-08 03:48:00,